createdAt,value
2023-01-02T00:02:16.047Z,15.52
2023-01-02T00:04:45.628Z,16.05
2023-01-02T00:07:15.268Z,15.13
2023-01-02T00:09:45.328Z,15.80
2023-01-02T00:12:14.936Z,15.05
2023-01-02T00:14:44.648Z,15.48
2023-01-02T00:17:14.217Z,16.40
2023-01-02T00:19:44.535Z,15.70
2023-01-02T00:22:14.125Z,16.58
2023-01-02T00:24:43.653Z,17.70
2023-01-02T00:27:13.227Z,19.27
2023-01-02T00:29:43.101Z,16.95
2023-01-02T00:32:12.684Z,16.88
2023-01-02T00:34:42.261Z,17.73
2023-01-02T00:37:11.902Z,18.05
2023-01-02T00:39:41.455Z,18.90
2023-01-02T00:42:10.960Z,18.92
2023-01-02T00:44:40.648Z,19.75
2023-01-02T00:47:10.164Z,18.45
2023-01-02T00:49:39.699Z,22.10
2023-01-02T00:52:09.382Z,19.23
2023-01-02T00:54:38.911Z,23.23
2023-01-02T00:57:08.488Z,22.70
2023-01-02T00:59:38.115Z,21.05
2023-01-02T01:02:07.836Z,24.70
2023-01-02T01:04:38.780Z,25.52
2023-01-02T01:07:08.413Z,33.08
2023-01-02T01:09:38.024Z,54.25
2023-01-02T01:12:07.785Z,51.03
2023-01-02T01:14:37.476Z,39.05
2023-01-02T01:17:07.188Z,31.42
2023-01-02T01:19:37.940Z,26.70
2023-01-02T01:22:08.118Z,23.98
2023-01-02T01:24:37.745Z,22.27
2023-01-02T01:27:07.370Z,22.80
2023-01-02T01:29:38.431Z,21.10
2023-01-02T01:32:08.642Z,20.40
2023-01-02T01:34:38.285Z,20.48
2023-01-02T01:37:07.900Z,21.52
2023-01-02T01:39:37.606Z,22.13
2023-01-02T01:42:07.350Z,23.02
2023-01-02T01:44:56.808Z,26.67
2023-01-02T01:47:49.466Z,23.90
2023-01-02T01:50:34.413Z,23.15
2023-01-02T01:53:11.763Z,21.60
2023-01-02T01:55:57.618Z,20.93
2023-01-02T01:58:32.398Z,20.77
2023-01-02T02:01:02.659Z,20.75
2023-01-02T02:03:34.736Z,19.90
2023-01-02T02:06:05.315Z,19.80
2023-01-02T02:09:00.500Z,20.00
2023-01-02T02:11:31.156Z,19.25
2023-01-02T02:14:02.506Z,19.92
2023-01-02T02:16:56.091Z,20.67
2023-01-02T02:20:03.552Z,22.02
2023-01-02T02:23:12.169Z,25.35
2023-01-02T02:26:20.936Z,22.13
2023-01-02T02:29:23.006Z,21.98
2023-01-02T02:32:24.324Z,20.83
2023-01-02T02:35:16.415Z,21.00
2023-01-02T02:38:13.351Z,21.05
2023-01-02T02:41:07.185Z,19.80
2023-01-02T02:44:08.706Z,20.80
2023-01-02T02:47:03.364Z,20.83
2023-01-02T02:50:12.209Z,21.40
2023-01-02T02:52:54.551Z,20.05
2023-01-02T02:55:46.984Z,22.05
2023-01-02T02:58:18.482Z,21.23
2023-01-02T03:00:50.726Z,21.27
2023-01-02T03:03:25.946Z,21.30
2023-01-02T03:06:23.787Z,21.85
2023-01-02T03:09:08.403Z,21.08
2023-01-02T03:12:17.156Z,20.80
2023-01-02T03:15:09.387Z,21.42
2023-01-02T03:18:08.712Z,19.42
2023-01-02T03:20:51.141Z,20.33
2023-01-02T03:23:25.903Z,20.95
2023-01-02T03:25:56.534Z,20.05
2023-01-02T03:28:28.036Z,19.23
2023-01-02T03:31:01.878Z,19.70
2023-01-02T03:33:39.300Z,18.95
2023-01-02T03:36:17.845Z,19.10
2023-01-02T03:39:01.914Z,18.15
2023-01-02T03:41:37.047Z,17.90
2023-01-02T03:44:11.219Z,19.55
2023-01-02T03:46:53.154Z,18.73
2023-01-02T03:49:31.947Z,19.02
2023-01-02T03:52:02.425Z,19.33
2023-01-02T03:54:32.998Z,19.27
2023-01-02T03:57:11.910Z,18.83
2023-01-02T04:00:11.468Z,18.23
2023-01-02T04:03:10.912Z,17.60
2023-01-02T04:05:55.564Z,17.65
2023-01-02T04:08:47.049Z,18.30
2023-01-02T04:11:21.232Z,16.65
2023-01-02T04:14:01.774Z,17.55
2023-01-02T04:16:35.259Z,18.15
2023-01-02T04:19:17.647Z,18.33
2023-01-02T04:21:50.927Z,17.60
2023-01-02T04:24:28.382Z,17.88
2023-01-02T04:27:13.873Z,17.63
2023-01-02T04:29:43.935Z,17.48
2023-01-02T04:32:25.208Z,16.77
2023-01-02T04:34:56.809Z,17.30
2023-01-02T04:37:35.947Z,16.80
2023-01-02T04:40:11.962Z,16.67
2023-01-02T04:42:41.579Z,15.95
2023-01-02T04:45:11.736Z,17.77
2023-01-02T04:47:41.384Z,17.73
2023-01-02T04:50:12.130Z,16.60
2023-01-02T04:52:41.730Z,16.33
2023-01-02T04:55:12.495Z,16.52
2023-01-02T04:57:42.168Z,15.82
2023-01-02T05:00:12.390Z,15.95
2023-01-02T05:02:43.803Z,15.55
2023-01-02T05:05:13.586Z,16.40
2023-01-02T05:07:43.234Z,15.77
2023-01-02T05:10:13.081Z,15.38
2023-01-02T05:12:43.217Z,16.13
2023-01-02T05:15:13.319Z,16.40
2023-01-02T05:17:44.325Z,15.25
2023-01-02T05:20:15.008Z,15.95
2023-01-02T05:23:05.900Z,14.77
2023-01-02T05:25:37.849Z,14.55
2023-01-02T05:28:07.540Z,14.95
2023-01-02T05:30:39.494Z,15.05
2023-01-02T05:33:09.123Z,14.80
2023-01-02T05:35:39.007Z,16.75
2023-01-02T05:38:08.800Z,14.73
2023-01-02T05:40:38.408Z,15.10
2023-01-02T05:43:08.000Z,15.57
2023-01-02T05:45:37.569Z,14.68
2023-01-02T05:48:07.465Z,14.13
2023-01-02T05:50:37.068Z,14.20
2023-01-02T05:53:06.590Z,14.32
2023-01-02T05:55:36.139Z,14.95
2023-01-02T05:58:05.785Z,13.77
2023-01-02T06:00:35.478Z,15.80
2023-01-02T06:03:05.190Z,14.25
2023-01-02T06:05:36.257Z,14.55
2023-01-02T06:08:05.932Z,13.48
2023-01-02T06:10:35.574Z,13.02
2023-01-02T06:13:05.272Z,13.43
2023-01-02T06:15:36.407Z,12.85
2023-01-02T06:18:06.050Z,14.45
2023-01-02T06:20:35.681Z,13.35
2023-01-02T06:23:05.377Z,14.18
2023-01-02T06:25:36.332Z,12.70
2023-01-02T06:28:07.218Z,13.02
2023-01-02T06:30:36.902Z,12.27
2023-01-02T06:33:06.579Z,13.93
2023-01-02T06:35:36.312Z,12.82
2023-01-02T06:38:06.307Z,12.70
2023-01-02T06:40:35.912Z,11.30
2023-01-02T06:43:05.570Z,11.45
2023-01-02T06:45:35.271Z,11.50
2023-01-02T06:48:04.956Z,11.73
2023-01-02T06:50:35.231Z,11.43
2023-01-02T06:53:05.076Z,11.23
2023-01-02T06:55:34.727Z,10.77
2023-01-02T06:58:09.375Z,10.43
2023-01-02T07:00:42.159Z,9.63
2023-01-02T07:03:11.831Z,9.30
2023-01-02T07:05:41.598Z,9.88
2023-01-02T07:08:12.455Z,9.30
2023-01-02T07:10:42.114Z,10.02
2023-01-02T07:13:11.766Z,10.55
2023-01-02T07:15:41.477Z,9.07
2023-01-02T07:18:11.086Z,9.77
2023-01-02T07:20:40.715Z,9.13
2023-01-02T07:23:10.460Z,8.70
2023-01-02T07:25:44.392Z,9.27
2023-01-02T07:28:15.158Z,8.43
2023-01-02T07:30:44.712Z,8.18
2023-01-02T07:33:14.308Z,7.82
2023-01-02T07:35:44.299Z,8.43
2023-01-02T07:38:14.469Z,9.52
2023-01-02T07:40:44.037Z,9.05
2023-01-02T07:43:13.731Z,8.88
2023-01-02T07:45:49.594Z,9.18
2023-01-02T07:48:20.548Z,9.98
2023-01-02T07:50:50.100Z,9.93
2023-01-02T07:53:19.684Z,10.35
2023-01-02T07:55:56.577Z,9.25
2023-01-02T07:58:26.498Z,9.55
2023-01-02T08:01:03.249Z,12.35
2023-01-02T08:03:35.808Z,14.82
2023-01-02T08:06:14.195Z,11.98
2023-01-02T08:08:44.531Z,12.65
2023-01-02T08:11:17.564Z,8.98
2023-01-02T08:13:47.978Z,9.65
2023-01-02T08:16:24.512Z,9.25
2023-01-02T08:18:58.187Z,8.88
2023-01-02T08:21:29.008Z,8.93
2023-01-02T08:23:58.682Z,8.50
2023-01-02T08:26:28.302Z,8.93
2023-01-02T08:28:58.671Z,8.30
2023-01-02T08:31:28.350Z,9.23
2023-01-02T08:33:58.066Z,9.52
2023-01-02T08:36:27.654Z,9.10
2023-01-02T08:38:57.691Z,9.82
2023-01-02T08:41:39.093Z,8.68
2023-01-02T08:44:09.706Z,9.55
2023-01-02T08:46:42.903Z,8.98
2023-01-02T08:49:13.937Z,9.88
2023-01-02T08:51:43.553Z,9.60
2023-01-02T08:54:13.124Z,9.43
2023-01-02T08:56:43.180Z,9.25
2023-01-02T08:59:14.789Z,7.78
2023-01-02T09:01:44.994Z,8.43
2023-01-02T09:04:14.661Z,8.73
2023-01-02T09:06:45.408Z,8.32
2023-01-02T09:09:17.672Z,8.57
2023-01-02T09:11:51.980Z,8.13
2023-01-02T09:14:23.587Z,8.00
2023-01-02T09:16:54.071Z,8.43
2023-01-02T09:19:23.698Z,9.10
2023-01-02T09:21:53.479Z,8.95
2023-01-02T09:24:23.167Z,9.13
2023-01-02T09:26:52.913Z,8.95
2023-01-02T09:29:23.484Z,8.75
2023-01-02T09:31:53.079Z,8.57
2023-01-02T09:34:22.724Z,9.07
2023-01-02T09:36:52.381Z,8.82
2023-01-02T09:39:25.607Z,9.05
2023-01-02T09:42:02.407Z,8.82
2023-01-02T09:44:54.484Z,8.57
2023-01-02T09:47:32.659Z,9.60
2023-01-02T09:52:44.586Z,9.23
2023-01-02T09:55:21.309Z,9.52
2023-01-02T09:58:16.168Z,9.68
2023-01-02T10:00:48.045Z,8.85
2023-01-02T10:03:42.454Z,10.00
2023-01-02T10:06:19.540Z,9.52
2023-01-02T10:09:12.639Z,10.32
2023-01-02T10:11:58.891Z,9.77
2023-01-02T10:15:00.205Z,10.10
2023-01-02T10:17:35.486Z,9.52
2023-01-02T10:20:29.355Z,8.73
2023-01-02T10:23:22.969Z,9.63
2023-01-02T10:26:05.609Z,9.80
2023-01-02T10:29:01.780Z,9.55
2023-01-02T10:31:57.828Z,9.40
2023-01-02T10:34:32.056Z,9.77
2023-01-02T10:37:06.212Z,9.75
2023-01-02T10:39:37.669Z,9.45
2023-01-02T10:42:08.504Z,9.13
2023-01-02T10:44:40.626Z,9.32
2023-01-02T10:47:37.565Z,10.13
2023-01-02T10:50:09.995Z,10.30
2023-01-02T10:52:50.817Z,9.15
2023-01-02T10:55:47.149Z,10.10
2023-01-02T10:58:29.051Z,9.63
2023-01-02T11:01:23.200Z,10.55
2023-01-02T11:04:15.313Z,9.68
2023-01-02T11:07:01.107Z,10.27
2023-01-02T11:09:33.592Z,10.40
2023-01-02T11:12:15.393Z,10.35
2023-01-02T11:14:45.040Z,10.00
2023-01-02T11:17:23.694Z,10.45
2023-01-02T11:19:58.598Z,9.25
2023-01-02T11:22:39.267Z,10.48
2023-01-02T11:25:14.432Z,9.85
2023-01-02T11:27:45.782Z,10.57
2023-01-02T11:30:37.829Z,9.90
2023-01-02T11:33:29.891Z,9.82
2023-01-02T11:36:08.431Z,10.68
2023-01-02T11:38:50.490Z,9.90
2023-01-02T11:42:01.662Z,10.93
2023-01-02T11:44:59.264Z,10.10
2023-01-02T11:47:36.396Z,11.43
2023-01-02T11:50:06.515Z,11.65
2023-01-02T11:52:48.307Z,10.80
2023-01-02T11:55:48.712Z,12.93
2023-01-02T11:58:57.458Z,20.17
2023-01-02T12:01:49.990Z,36.63
2023-01-02T12:04:19.669Z,47.05
2023-01-02T12:07:22.212Z,44.25
2023-01-02T12:10:31.005Z,40.17
2023-01-02T12:13:39.874Z,32.63
2023-01-02T12:16:28.719Z,20.38
2023-01-02T12:19:37.539Z,16.52
2023-01-02T12:22:46.227Z,13.38
2023-01-02T12:25:55.027Z,13.00
2023-01-02T12:28:54.568Z,14.77
2023-01-02T12:32:01.236Z,17.35
2023-01-02T12:35:13.897Z,20.90
2023-01-02T12:38:05.448Z,22.83
2023-01-02T12:41:04.215Z,22.33
2023-01-02T12:44:00.646Z,23.88
2023-01-02T12:46:49.668Z,22.48
2023-01-02T12:49:54.948Z,22.48
2023-01-02T12:52:57.628Z,23.75
2023-01-02T12:56:06.418Z,22.55
2023-01-02T12:59:02.501Z,22.50
2023-01-02T13:02:04.288Z,24.08
2023-01-02T13:04:39.170Z,24.42
2023-01-02T13:07:24.476Z,22.70
2023-01-02T13:09:55.710Z,23.42
2023-01-02T13:12:29.154Z,22.80
2023-01-02T13:15:22.926Z,22.52
2023-01-02T13:18:30.876Z,22.02
2023-01-02T13:21:14.005Z,24.20
2023-01-02T13:23:48.636Z,24.00
2023-01-02T13:26:28.174Z,23.77
2023-01-02T13:29:28.992Z,21.35
2023-01-02T13:32:00.834Z,22.55
2023-01-02T13:34:34.165Z,24.23
2023-01-02T13:37:11.467Z,23.88
2023-01-02T13:39:54.897Z,24.20
2023-01-02T13:42:55.262Z,22.17
2023-01-02T13:45:45.053Z,22.63
2023-01-02T13:48:40.412Z,19.38
2023-01-02T13:51:19.668Z,17.77
2023-01-02T13:53:52.318Z,16.27
2023-01-02T13:56:30.540Z,16.65
2023-01-02T14:02:19.502Z,16.25
2023-01-02T14:04:49.345Z,16.60
2023-01-02T14:07:45.465Z,16.08
2023-01-02T14:10:30.120Z,19.13
2023-01-02T14:13:09.536Z,19.25
2023-01-02T14:16:09.610Z,18.70
2023-01-02T14:18:46.062Z,19.15
2023-01-02T14:21:19.429Z,18.83
2023-01-02T14:24:18.221Z,18.25
2023-01-02T14:26:43.796Z,18.00
2023-01-02T14:29:18.556Z,18.55
2023-01-02T14:31:49.532Z,17.98
2023-01-02T14:34:27.405Z,18.30
2023-01-02T14:36:59.919Z,18.13
2023-01-02T14:39:38.378Z,17.85
2023-01-02T14:42:54.408Z,19.38
2023-01-02T14:45:25.648Z,17.83
2023-01-02T14:48:01.557Z,16.70
2023-01-02T14:50:35.405Z,16.60
2023-01-02T14:53:28.076Z,16.80
2023-01-02T14:56:04.773Z,17.80
2023-01-02T14:58:44.956Z,16.48
2023-01-02T15:01:42.509Z,15.63
2023-01-02T15:04:26.904Z,16.83
2023-01-02T15:07:29.356Z,15.32
2023-01-02T15:10:21.140Z,15.68
2023-01-02T15:13:08.939Z,28.88
2023-01-02T15:15:45.924Z,36.38
2023-01-02T15:18:31.094Z,26.85
2023-01-02T15:21:10.340Z,22.75
2023-01-02T15:23:45.198Z,20.98
2023-01-02T15:26:38.777Z,18.90
2023-01-02T15:29:22.353Z,17.98
2023-01-02T15:32:00.775Z,19.17
2023-01-02T15:34:35.435Z,20.30
2023-01-02T15:37:08.633Z,19.15
2023-01-02T15:39:41.754Z,19.67
2023-01-02T15:42:46.646Z,19.40
2023-01-02T15:45:19.079Z,18.23
2023-01-02T15:47:53.365Z,18.25
2023-01-02T15:50:29.795Z,18.25
2023-01-02T15:53:07.114Z,18.70
2023-01-02T15:55:42.348Z,17.93
2023-01-02T15:58:30.977Z,18.58
2023-01-02T16:01:22.262Z,16.98
2023-01-02T16:04:03.153Z,16.40
2023-01-02T16:06:47.064Z,17.70
2023-01-02T16:09:32.919Z,16.40
2023-01-02T16:12:05.191Z,15.75
2023-01-02T16:14:43.231Z,18.35
2023-01-02T16:17:35.760Z,18.70
2023-01-02T16:20:21.303Z,18.70
2023-01-02T16:23:06.099Z,21.55
2023-01-02T16:25:38.184Z,23.87
2023-01-02T16:28:36.155Z,25.50
2023-01-02T16:31:17.219Z,24.95
2023-01-02T16:33:48.055Z,26.05
2023-01-02T16:36:27.288Z,24.95
2023-01-02T16:39:01.177Z,21.13
2023-01-02T16:42:19.709Z,19.23
2023-01-02T16:44:57.531Z,20.20
2023-01-02T16:47:41.428Z,17.45
2023-01-02T16:50:19.421Z,16.38
2023-01-02T16:52:50.202Z,17.92
2023-01-02T16:55:22.354Z,18.20
2023-01-02T16:57:53.377Z,16.60
2023-01-02T17:00:24.571Z,17.20
2023-01-02T17:02:54.609Z,16.83
2023-01-02T17:05:44.623Z,16.60
2023-01-02T17:08:14.319Z,15.75
2023-01-02T17:10:44.142Z,16.80
2023-01-02T17:13:13.996Z,15.45
2023-01-02T17:15:44.019Z,15.93
2023-01-02T17:18:15.005Z,16.63
2023-01-02T17:20:45.114Z,15.93
2023-01-02T17:23:14.925Z,17.60
2023-01-02T17:25:45.463Z,16.25
2023-01-02T17:28:16.011Z,15.95
2023-01-02T17:30:47.155Z,17.13
2023-01-02T17:33:17.290Z,16.83
2023-01-02T17:35:48.562Z,17.08
2023-01-02T17:38:19.165Z,21.58
2023-01-02T17:40:49.000Z,23.63
2023-01-02T17:43:18.688Z,21.33
2023-01-02T17:45:49.090Z,20.80
2023-01-02T17:48:23.850Z,20.17
2023-01-02T17:50:55.623Z,18.63
2023-01-02T17:53:25.481Z,18.77
2023-01-02T17:56:20.833Z,18.20
2023-01-02T17:58:46.578Z,16.40
2023-01-02T18:01:19.834Z,18.00
2023-01-02T18:03:49.836Z,17.48
2023-01-02T18:06:20.471Z,17.70
2023-01-02T18:08:50.796Z,18.08
2023-01-02T18:11:20.571Z,18.38
2023-01-02T18:13:54.917Z,16.98
2023-01-02T18:16:33.856Z,18.27
2023-01-02T18:19:05.794Z,17.40
2023-01-02T18:21:37.014Z,17.65
2023-01-02T18:24:13.955Z,17.15
2023-01-02T18:26:43.809Z,17.30
2023-01-02T18:29:22.729Z,17.35
2023-01-02T18:31:53.277Z,17.65
2023-01-02T18:34:47.798Z,18.20
2023-01-02T18:37:27.908Z,17.13
2023-01-02T18:39:59.017Z,16.17
2023-01-02T18:42:33.862Z,18.10
2023-01-02T18:45:04.439Z,17.65
2023-01-02T18:47:38.872Z,18.13
2023-01-02T18:50:35.425Z,18.45
2023-01-02T18:53:27.767Z,19.15
2023-01-02T18:56:04.550Z,18.13
2023-01-02T18:59:13.313Z,17.92
2023-01-02T19:01:50.253Z,18.17
2023-01-02T19:04:32.732Z,17.20
2023-01-02T19:07:17.715Z,17.85
2023-01-02T19:09:47.347Z,17.27
2023-01-02T19:12:46.648Z,18.40
2023-01-02T19:15:55.403Z,19.27
2023-01-02T19:18:48.663Z,19.33
2023-01-02T19:21:33.383Z,18.38
2023-01-02T19:24:25.812Z,18.90
2023-01-02T19:27:00.082Z,19.17
2023-01-02T19:29:33.908Z,19.23
2023-01-02T19:32:24.649Z,18.73
2023-01-02T19:35:00.417Z,19.38
2023-01-02T19:37:42.147Z,19.48
2023-01-02T19:40:24.343Z,18.80
2023-01-02T19:42:56.112Z,18.80
2023-01-02T19:45:28.070Z,20.08
2023-01-02T19:47:58.439Z,18.58
2023-01-02T19:50:29.153Z,19.02
2023-01-02T19:52:58.679Z,19.48
2023-01-02T19:55:28.299Z,18.55
2023-01-02T19:57:58.097Z,18.08
2023-01-02T20:00:27.741Z,17.67
2023-01-02T20:02:57.531Z,19.13
2023-01-02T20:05:29.306Z,19.90
2023-01-02T20:08:02.336Z,19.73
2023-01-02T20:10:31.970Z,18.80
2023-01-02T20:13:01.541Z,20.63
2023-01-02T20:15:31.301Z,20.08
2023-01-02T20:18:06.623Z,19.63
2023-01-02T20:20:38.339Z,19.75
2023-01-02T20:23:08.010Z,18.40
2023-01-02T20:25:37.657Z,18.17
2023-01-02T20:28:07.356Z,18.73
2023-01-02T20:30:36.948Z,18.95
2023-01-02T20:33:06.639Z,17.88
2023-01-02T20:35:36.305Z,18.75
2023-01-02T20:38:05.851Z,17.35
2023-01-02T20:40:35.389Z,16.52
2023-01-02T20:43:05.109Z,17.23
2023-01-02T20:45:34.776Z,17.42
2023-01-02T20:48:05.217Z,16.88
2023-01-02T20:50:34.899Z,16.15
2023-01-02T20:53:04.726Z,17.02
2023-01-02T20:55:34.836Z,17.02
2023-01-02T20:58:04.994Z,16.58
2023-01-02T21:00:35.398Z,16.45
2023-01-02T21:03:05.838Z,17.17
2023-01-02T21:05:35.807Z,15.32
2023-01-02T21:08:05.945Z,16.08
2023-01-02T21:10:36.597Z,17.75
2023-01-02T21:13:09.323Z,18.90
2023-01-02T21:15:44.160Z,17.67
2023-01-02T21:18:29.304Z,16.70
2023-01-02T21:21:02.585Z,16.45
2023-01-02T21:23:33.709Z,17.02
2023-01-02T21:26:04.059Z,17.52
2023-01-02T21:28:34.805Z,16.77
2023-01-02T21:31:04.538Z,17.17
2023-01-02T21:33:34.299Z,17.55
2023-01-02T21:36:08.344Z,16.55
2023-01-02T21:38:39.315Z,15.93
2023-01-02T21:41:28.685Z,16.73
2023-01-02T21:43:58.456Z,17.10
2023-01-02T21:46:28.043Z,16.48
2023-01-02T21:48:58.419Z,15.73
2023-01-02T21:51:32.737Z,15.88
2023-01-02T21:54:02.876Z,15.32
2023-01-02T21:56:32.543Z,15.15
2023-01-02T21:59:02.610Z,15.52
2023-01-02T22:01:32.374Z,15.30
2023-01-02T22:04:02.189Z,15.55
2023-01-02T22:06:36.745Z,17.38
2023-01-02T22:09:08.372Z,15.50
2023-01-02T22:11:57.747Z,15.32
2023-01-02T22:14:31.076Z,15.85
2023-01-02T22:17:04.404Z,15.02
2023-01-02T22:19:34.623Z,15.48
2023-01-02T22:22:05.017Z,15.30
2023-01-02T22:24:39.160Z,14.63
2023-01-02T22:27:16.144Z,14.95
2023-01-02T22:32:37.014Z,15.40
2023-01-02T22:35:08.528Z,14.95
2023-01-02T22:37:38.131Z,14.32
2023-01-02T22:40:08.092Z,14.63
2023-01-02T22:43:02.704Z,15.95
2023-01-02T22:45:39.120Z,16.13
2023-01-02T22:48:16.366Z,16.63
2023-01-02T22:50:48.279Z,14.60
2023-01-02T22:53:35.795Z,15.65
2023-01-02T22:56:14.613Z,15.43
2023-01-02T22:58:44.410Z,15.23
2023-01-02T23:01:32.900Z,14.65
2023-01-02T23:04:03.163Z,14.65
2023-01-02T23:06:35.548Z,14.75
2023-01-02T23:11:40.584Z,14.60
2023-01-02T23:14:10.235Z,15.02
2023-01-02T23:17:00.171Z,15.13
2023-01-02T23:19:30.017Z,13.73
2023-01-02T23:22:04.306Z,15.98
2023-01-02T23:24:38.835Z,16.45
2023-01-02T23:27:14.207Z,16.67
2023-01-02T23:29:44.004Z,16.38
2023-01-02T23:32:14.303Z,14.93
2023-01-02T23:34:44.086Z,14.95
2023-01-02T23:37:13.868Z,16.48
2023-01-02T23:39:43.536Z,16.65
2023-01-02T23:42:13.282Z,17.02
2023-01-02T23:44:43.697Z,16.58
2023-01-02T23:47:18.700Z,16.70
2023-01-02T23:49:48.931Z,17.35
2023-01-02T23:52:19.357Z,18.55
2023-01-02T23:54:48.991Z,16.95
2023-01-02T23:57:18.755Z,17.67
2023-01-02T23:59:48.365Z,19.23
